sensor_id;sensor_type;location;lat;lon;timestamp;P1;durP1;ratioP1;P2;durP2;ratioP2
17153;SDS011;8692;52.164;7.558;2023-05-08T00:00:33;9.13;;;8.30;;
17153;SDS011;8692;52.164;7.558;2023-05-08T00:03:04;9.67;;;8.87;;
17153;SDS011;8692;52.164;7.558;2023-05-08T00:05:32;9.17;;;8.33;;
17153;SDS011;8692;52.164;7.558;2023-05-08T00:08:01;9.23;;;8.53;;
17153;SDS011;8692;52.164;7.558;2023-05-08T00:10:33;8.63;;;7.93;;
17153;SDS011;8692;52.164;7.558;2023-05-08T00:13:02;9.27;;;8.47;;
17153;SDS011;8692;52.164;7.558;2023-05-08T00:15:35;8.47;;;7.70;;
17153;SDS011;8692;52.164;7.558;2023-05-08T00:18:06;8.27;;;7.57;;
17153;SDS011;8692;52.164;7.558;2023-05-08T00:20:37;8.53;;;7.83;;
17153;SDS011;8692;52.164;7.558;2023-05-08T00:23:08;7.50;;;6.80;;
17153;SDS011;8692;52.164;7.558;2023-05-08T00:25:38;7.47;;;6.87;;
17153;SDS011;8692;52.164;7.558;2023-05-08T00:28:06;6.97;;;6.37;;
17153;SDS011;8692;52.164;7.558;2023-05-08T00:30:36;7.27;;;6.67;;
17153;SDS011;8692;52.164;7.558;2023-05-08T00:33:06;6.20;;;5.60;;
17153;SDS011;8692;52.164;7.558;2023-05-08T00:35:37;5.90;;;5.40;;
17153;SDS011;8692;52.164;7.558;2023-05-08T00:38:09;7.70;;;6.13;;
17153;SDS011;8692;52.164;7.558;2023-05-08T00:40:39;6.63;;;6.03;;
17153;SDS011;8692;52.164;7.558;2023-05-08T00:43:08;6.60;;;6.00;;
17153;SDS011;8692;52.164;7.558;2023-05-08T00:45:40;5.47;;;4.97;;
17153;SDS011;8692;52.164;7.558;2023-05-08T00:48:10;5.90;;;5.40;;
17153;SDS011;8692;52.164;7.558;2023-05-08T00:50:41;5.43;;;4.93;;
17153;SDS011;8692;52.164;7.558;2023-05-08T00:53:09;5.70;;;5.23;;
17153;SDS011;8692;52.164;7.558;2023-05-08T00:55:39;6.33;;;5.70;;
17153;SDS011;8692;52.164;7.558;2023-05-08T00:58:09;6.50;;;5.90;;
17153;SDS011;8692;52.164;7.558;2023-05-08T01:00:41;6.73;;;6.10;;
17153;SDS011;8692;52.164;7.558;2023-05-08T01:03:11;5.77;;;5.30;;
17153;SDS011;8692;52.164;7.558;2023-05-08T01:05:40;6.03;;;5.53;;
17153;SDS011;8692;52.164;7.558;2023-05-08T01:08:09;6.37;;;5.80;;
17153;SDS011;8692;52.164;7.558;2023-05-08T01:10:41;6.40;;;5.80;;
17153;SDS011;8692;52.164;7.558;2023-05-08T01:13:17;6.30;;;5.80;;
17153;SDS011;8692;52.164;7.558;2023-05-08T01:15:59;6.50;;;5.73;;
17153;SDS011;8692;52.164;7.558;2023-05-08T01:18:35;7.47;;;6.80;;
17153;SDS011;8692;52.164;7.558;2023-05-08T01:21:12;7.33;;;6.67;;
17153;SDS011;8692;52.164;7.558;2023-05-08T01:23:52;7.33;;;6.67;;
17153;SDS011;8692;52.164;7.558;2023-05-08T01:30:00;6.77;;;6.17;;
17153;SDS011;8692;52.164;7.558;2023-05-08T01:32:50;6.70;;;6.13;;
17153;SDS011;8692;52.164;7.558;2023-05-08T01:35:26;7.37;;;6.67;;
17153;SDS011;8692;52.164;7.558;2023-05-08T01:37:59;6.67;;;6.07;;
17153;SDS011;8692;52.164;7.558;2023-05-08T01:40:39;6.40;;;5.80;;
17153;SDS011;8692;52.164;7.558;2023-05-08T01:43:18;7.70;;;6.50;;
17153;SDS011;8692;52.164;7.558;2023-05-08T01:45:55;6.93;;;6.30;;
17153;SDS011;8692;52.164;7.558;2023-05-08T01:48:29;6.23;;;5.63;;
17153;SDS011;8692;52.164;7.558;2023-05-08T01:51:04;6.90;;;6.30;;
17153;SDS011;8692;52.164;7.558;2023-05-08T01:53:35;6.40;;;5.80;;
17153;SDS011;8692;52.164;7.558;2023-05-08T01:56:08;6.47;;;5.87;;
17153;SDS011;8692;52.164;7.558;2023-05-08T01:58:40;5.90;;;5.37;;
17153;SDS011;8692;52.164;7.558;2023-05-08T02:01:09;6.73;;;6.13;;
17153;SDS011;8692;52.164;7.558;2023-05-08T02:03:40;6.90;;;5.77;;
17153;SDS011;8692;52.164;7.558;2023-05-08T02:06:13;6.77;;;6.17;;
17153;SDS011;8692;52.164;7.558;2023-05-08T02:08:45;6.43;;;5.90;;
17153;SDS011;8692;52.164;7.558;2023-05-08T02:11:14;5.70;;;5.20;;
17153;SDS011;8692;52.164;7.558;2023-05-08T02:13:46;6.47;;;5.97;;
17153;SDS011;8692;52.164;7.558;2023-05-08T02:16:16;6.23;;;5.73;;
17153;SDS011;8692;52.164;7.558;2023-05-08T02:18:47;6.17;;;5.03;;
17153;SDS011;8692;52.164;7.558;2023-05-08T02:21:18;6.17;;;5.67;;
17153;SDS011;8692;52.164;7.558;2023-05-08T02:23:47;6.67;;;6.07;;
17153;SDS011;8692;52.164;7.558;2023-05-08T02:26:16;6.00;;;5.50;;
17153;SDS011;8692;52.164;7.558;2023-05-08T02:28:46;5.30;;;4.90;;
17153;SDS011;8692;52.164;7.558;2023-05-08T02:31:18;6.93;;;6.37;;
17153;SDS011;8692;52.164;7.558;2023-05-08T02:33:48;5.40;;;5.00;;
17153;SDS011;8692;52.164;7.558;2023-05-08T02:36:20;5.80;;;5.30;;
17153;SDS011;8692;52.164;7.558;2023-05-08T02:38:54;6.23;;;5.70;;
17153;SDS011;8692;52.164;7.558;2023-05-08T02:41:27;5.67;;;5.17;;
17153;SDS011;8692;52.164;7.558;2023-05-08T02:43:58;5.83;;;5.33;;
17153;SDS011;8692;52.164;7.558;2023-05-08T02:46:32;5.93;;;5.40;;
17153;SDS011;8692;52.164;7.558;2023-05-08T02:49:11;5.97;;;5.47;;
17153;SDS011;8692;52.164;7.558;2023-05-08T02:51:59;6.33;;;5.73;;
17153;SDS011;8692;52.164;7.558;2023-05-08T02:54:35;5.87;;;5.33;;
17153;SDS011;8692;52.164;7.558;2023-05-08T02:57:13;5.70;;;5.20;;
17153;SDS011;8692;52.164;7.558;2023-05-08T02:59:54;5.53;;;5.13;;
17153;SDS011;8692;52.164;7.558;2023-05-08T03:02:36;5.60;;;5.10;;
17153;SDS011;8692;52.164;7.558;2023-05-08T03:05:12;5.37;;;4.93;;
17153;SDS011;8692;52.164;7.558;2023-05-08T03:07:46;5.50;;;5.00;;
17153;SDS011;8692;52.164;7.558;2023-05-08T03:10:17;5.67;;;5.20;;
17153;SDS011;8692;52.164;7.558;2023-05-08T03:12:48;5.33;;;4.83;;
17153;SDS011;8692;52.164;7.558;2023-05-08T03:15:23;4.90;;;4.50;;
17153;SDS011;8692;52.164;7.558;2023-05-08T03:17:54;6.07;;;5.30;;
17153;SDS011;8692;52.164;7.558;2023-05-08T03:20:26;5.17;;;4.73;;
17153;SDS011;8692;52.164;7.558;2023-05-08T03:23:02;5.37;;;4.87;;
17153;SDS011;8692;52.164;7.558;2023-05-08T03:25:32;5.43;;;5.03;;
17153;SDS011;8692;52.164;7.558;2023-05-08T03:28:04;5.40;;;4.90;;
17153;SDS011;8692;52.164;7.558;2023-05-08T03:30:34;4.77;;;4.37;;
17153;SDS011;8692;52.164;7.558;2023-05-08T03:33:07;5.23;;;4.83;;
17153;SDS011;8692;52.164;7.558;2023-05-08T03:35:37;5.63;;;5.23;;
17153;SDS011;8692;52.164;7.558;2023-05-08T03:38:08;5.23;;;4.83;;
17153;SDS011;8692;52.164;7.558;2023-05-08T03:40:37;5.10;;;4.67;;
17153;SDS011;8692;52.164;7.558;2023-05-08T03:43:09;5.67;;;5.17;;
17153;SDS011;8692;52.164;7.558;2023-05-08T03:45:39;5.23;;;4.83;;
17153;SDS011;8692;52.164;7.558;2023-05-08T03:48:08;6.90;;;5.50;;
17153;SDS011;8692;52.164;7.558;2023-05-08T03:50:38;5.00;;;4.60;;
17153;SDS011;8692;52.164;7.558;2023-05-08T03:53:08;5.17;;;4.77;;
17153;SDS011;8692;52.164;7.558;2023-05-08T03:55:36;5.97;;;5.47;;
17153;SDS011;8692;52.164;7.558;2023-05-08T03:58:20;5.67;;;5.17;;
17153;SDS011;8692;52.164;7.558;2023-05-08T04:00:58;4.63;;;4.23;;
17153;SDS011;8692;52.164;7.558;2023-05-08T04:03:39;5.23;;;4.70;;
17153;SDS011;8692;52.164;7.558;2023-05-08T04:06:23;5.67;;;5.17;;
17153;SDS011;8692;52.164;7.558;2023-05-08T04:09:16;5.60;;;5.03;;
17153;SDS011;8692;52.164;7.558;2023-05-08T04:11:51;5.93;;;5.33;;
17153;SDS011;8692;52.164;7.558;2023-05-08T04:14:30;5.57;;;5.17;;
17153;SDS011;8692;52.164;7.558;2023-05-08T04:17:07;6.30;;;5.70;;
17153;SDS011;8692;52.164;7.558;2023-05-08T04:19:46;5.70;;;5.20;;
17153;SDS011;8692;52.164;7.558;2023-05-08T04:22:23;6.30;;;5.70;;
17153;SDS011;8692;52.164;7.558;2023-05-08T04:24:53;5.50;;;5.03;;
17153;SDS011;8692;52.164;7.558;2023-05-08T04:27:28;7.70;;;5.00;;
17153;SDS011;8692;52.164;7.558;2023-05-08T04:29:57;6.33;;;5.77;;
17153;SDS011;8692;52.164;7.558;2023-05-08T04:32:30;5.53;;;5.07;;
17153;SDS011;8692;52.164;7.558;2023-05-08T04:35:03;6.20;;;5.67;;
17153;SDS011;8692;52.164;7.558;2023-05-08T04:37:35;6.03;;;5.60;;
17153;SDS011;8692;52.164;7.558;2023-05-08T04:40:06;6.37;;;5.77;;
17153;SDS011;8692;52.164;7.558;2023-05-08T04:42:37;7.17;;;5.30;;
17153;SDS011;8692;52.164;7.558;2023-05-08T04:45:08;6.20;;;5.60;;
17153;SDS011;8692;52.164;7.558;2023-05-08T04:47:40;6.23;;;5.63;;
17153;SDS011;8692;52.164;7.558;2023-05-08T04:50:09;6.03;;;5.43;;
17153;SDS011;8692;52.164;7.558;2023-05-08T04:52:39;8.43;;;6.13;;
17153;SDS011;8692;52.164;7.558;2023-05-08T04:55:10;5.93;;;5.43;;
17153;SDS011;8692;52.164;7.558;2023-05-08T04:57:39;6.47;;;5.87;;
17153;SDS011;8692;52.164;7.558;2023-05-08T05:00:08;6.70;;;6.07;;
17153;SDS011;8692;52.164;7.558;2023-05-08T05:02:40;7.20;;;5.80;;
17153;SDS011;8692;52.164;7.558;2023-05-08T05:05:11;5.73;;;5.23;;
17153;SDS011;8692;52.164;7.558;2023-05-08T05:07:41;6.83;;;6.17;;
17153;SDS011;8692;52.164;7.558;2023-05-08T05:10:10;5.90;;;5.40;;
17153;SDS011;8692;52.164;7.558;2023-05-08T05:12:39;6.47;;;5.87;;
17153;SDS011;8692;52.164;7.558;2023-05-08T05:15:10;6.20;;;5.70;;
17153;SDS011;8692;52.164;7.558;2023-05-08T05:17:39;6.80;;;6.20;;
17153;SDS011;8692;52.164;7.558;2023-05-08T05:20:08;6.50;;;5.90;;
17153;SDS011;8692;52.164;7.558;2023-05-08T05:22:37;5.93;;;5.43;;
17153;SDS011;8692;52.164;7.558;2023-05-08T05:25:10;7.17;;;6.47;;
17153;SDS011;8692;52.164;7.558;2023-05-08T05:27:39;6.83;;;6.03;;
17153;SDS011;8692;52.164;7.558;2023-05-08T05:30:07;5.57;;;5.10;;
17153;SDS011;8692;52.164;7.558;2023-05-08T05:32:38;6.50;;;6.00;;
17153;SDS011;8692;52.164;7.558;2023-05-08T05:35:08;5.83;;;5.33;;
17153;SDS011;8692;52.164;7.558;2023-05-08T05:37:37;7.03;;;6.43;;
17153;SDS011;8692;52.164;7.558;2023-05-08T05:40:06;6.60;;;6.10;;
17153;SDS011;8692;52.164;7.558;2023-05-08T05:42:37;6.50;;;5.90;;
17153;SDS011;8692;52.164;7.558;2023-05-08T05:45:08;5.97;;;5.47;;
17153;SDS011;8692;52.164;7.558;2023-05-08T05:47:43;6.07;;;5.57;;
17153;SDS011;8692;52.164;7.558;2023-05-08T05:50:12;5.83;;;5.43;;
17153;SDS011;8692;52.164;7.558;2023-05-08T05:52:40;5.97;;;5.50;;
17153;SDS011;8692;52.164;7.558;2023-05-08T05:55:10;6.10;;;5.50;;
17153;SDS011;8692;52.164;7.558;2023-05-08T05:57:43;7.30;;;6.57;;
17153;SDS011;8692;52.164;7.558;2023-05-08T06:00:15;6.97;;;6.33;;
17153;SDS011;8692;52.164;7.558;2023-05-08T06:02:48;7.93;;;6.30;;
17153;SDS011;8692;52.164;7.558;2023-05-08T06:05:19;7.30;;;6.70;;
17153;SDS011;8692;52.164;7.558;2023-05-08T06:07:48;6.97;;;6.37;;
17153;SDS011;8692;52.164;7.558;2023-05-08T06:10:16;7.13;;;6.43;;
17153;SDS011;8692;52.164;7.558;2023-05-08T06:12:46;7.47;;;6.83;;
17153;SDS011;8692;52.164;7.558;2023-05-08T06:15:17;7.90;;;6.60;;
17153;SDS011;8692;52.164;7.558;2023-05-08T06:17:46;7.33;;;6.63;;
17153;SDS011;8692;52.164;7.558;2023-05-08T06:20:15;7.37;;;6.63;;
17153;SDS011;8692;52.164;7.558;2023-05-08T06:22:45;7.50;;;6.83;;
17153;SDS011;8692;52.164;7.558;2023-05-08T06:25:16;7.13;;;6.53;;
17153;SDS011;8692;52.164;7.558;2023-05-08T06:27:44;7.27;;;6.67;;
17153;SDS011;8692;52.164;7.558;2023-05-08T06:30:14;7.43;;;6.80;;
17153;SDS011;8692;52.164;7.558;2023-05-08T06:32:45;7.50;;;6.87;;
17153;SDS011;8692;52.164;7.558;2023-05-08T06:35:13;6.97;;;6.30;;
17153;SDS011;8692;52.164;7.558;2023-05-08T06:37:44;7.27;;;6.60;;
17153;SDS011;8692;52.164;7.558;2023-05-08T06:40:12;7.53;;;6.83;;
17153;SDS011;8692;52.164;7.558;2023-05-08T06:42:43;7.10;;;6.33;;
17153;SDS011;8692;52.164;7.558;2023-05-08T06:45:13;6.83;;;6.23;;
17153;SDS011;8692;52.164;7.558;2023-05-08T06:47:44;6.97;;;6.37;;
17153;SDS011;8692;52.164;7.558;2023-05-08T06:50:12;6.63;;;6.13;;
17153;SDS011;8692;52.164;7.558;2023-05-08T06:52:42;8.10;;;7.40;;
17153;SDS011;8692;52.164;7.558;2023-05-08T06:55:13;7.07;;;6.17;;
17153;SDS011;8692;52.164;7.558;2023-05-08T06:57:41;8.10;;;7.33;;
17153;SDS011;8692;52.164;7.558;2023-05-08T07:00:10;8.70;;;7.73;;
17153;SDS011;8692;52.164;7.558;2023-05-08T07:02:40;8.20;;;7.40;;
17153;SDS011;8692;52.164;7.558;2023-05-08T07:05:10;8.47;;;7.43;;
17153;SDS011;8692;52.164;7.558;2023-05-08T07:07:39;8.50;;;7.63;;
17153;SDS011;8692;52.164;7.558;2023-05-08T07:10:08;9.03;;;8.23;;
17153;SDS011;8692;52.164;7.558;2023-05-08T07:12:39;7.67;;;6.97;;
17153;SDS011;8692;52.164;7.558;2023-05-08T07:15:10;7.90;;;7.20;;
17153;SDS011;8692;52.164;7.558;2023-05-08T07:17:52;7.67;;;7.00;;
17153;SDS011;8692;52.164;7.558;2023-05-08T07:20:21;8.17;;;7.33;;
17153;SDS011;8692;52.164;7.558;2023-05-08T07:22:52;7.87;;;7.17;;
17153;SDS011;8692;52.164;7.558;2023-05-08T07:25:22;8.23;;;7.20;;
17153;SDS011;8692;52.164;7.558;2023-05-08T07:27:53;8.60;;;7.83;;
17153;SDS011;8692;52.164;7.558;2023-05-08T07:30:25;8.20;;;7.57;;
17153;SDS011;8692;52.164;7.558;2023-05-08T07:32:54;8.27;;;7.27;;
17153;SDS011;8692;52.164;7.558;2023-05-08T07:35:23;8.43;;;7.77;;
17153;SDS011;8692;52.164;7.558;2023-05-08T07:37:53;9.57;;;8.67;;
17153;SDS011;8692;52.164;7.558;2023-05-08T07:40:22;8.23;;;7.53;;
17153;SDS011;8692;52.164;7.558;2023-05-08T07:42:50;7.80;;;7.10;;
17153;SDS011;8692;52.164;7.558;2023-05-08T07:45:18;8.50;;;7.73;;
17153;SDS011;8692;52.164;7.558;2023-05-08T07:47:49;9.13;;;8.23;;
17153;SDS011;8692;52.164;7.558;2023-05-08T07:50:23;7.83;;;7.23;;
17153;SDS011;8692;52.164;7.558;2023-05-08T07:52:54;8.57;;;7.87;;
17153;SDS011;8692;52.164;7.558;2023-05-08T07:55:25;9.23;;;8.43;;
17153;SDS011;8692;52.164;7.558;2023-05-08T07:57:55;8.87;;;8.17;;
17153;SDS011;8692;52.164;7.558;2023-05-08T08:00:26;8.43;;;7.67;;
17153;SDS011;8692;52.164;7.558;2023-05-08T08:02:55;9.60;;;8.53;;
17153;SDS011;8692;52.164;7.558;2023-05-08T08:05:24;8.80;;;7.63;;
17153;SDS011;8692;52.164;7.558;2023-05-08T08:07:55;8.97;;;8.17;;
17153;SDS011;8692;52.164;7.558;2023-05-08T08:10:23;7.70;;;7.10;;
17153;SDS011;8692;52.164;7.558;2023-05-08T08:12:51;9.10;;;7.80;;
17153;SDS011;8692;52.164;7.558;2023-05-08T08:15:19;9.20;;;8.50;;
17153;SDS011;8692;52.164;7.558;2023-05-08T08:17:48;9.97;;;8.93;;
17153;SDS011;8692;52.164;7.558;2023-05-08T08:20:16;9.43;;;8.53;;
17153;SDS011;8692;52.164;7.558;2023-05-08T08:22:45;7.90;;;7.20;;
17153;SDS011;8692;52.164;7.558;2023-05-08T08:25:14;8.53;;;7.70;;
17153;SDS011;8692;52.164;7.558;2023-05-08T08:27:42;8.80;;;8.00;;
17153;SDS011;8692;52.164;7.558;2023-05-08T08:30:10;8.97;;;8.17;;
17153;SDS011;8692;52.164;7.558;2023-05-08T08:32:46;10.03;;;8.60;;
17153;SDS011;8692;52.164;7.558;2023-05-08T08:35:14;9.33;;;8.40;;
17153;SDS011;8692;52.164;7.558;2023-05-08T08:37:46;10.43;;;8.77;;
17153;SDS011;8692;52.164;7.558;2023-05-08T08:40:17;8.97;;;8.17;;
17153;SDS011;8692;52.164;7.558;2023-05-08T08:42:45;9.60;;;8.67;;
17153;SDS011;8692;52.164;7.558;2023-05-08T08:45:13;9.13;;;8.20;;
17153;SDS011;8692;52.164;7.558;2023-05-08T08:47:43;9.47;;;8.67;;
17153;SDS011;8692;52.164;7.558;2023-05-08T08:50:12;9.60;;;8.70;;
17153;SDS011;8692;52.164;7.558;2023-05-08T08:52:50;9.70;;;8.67;;
17153;SDS011;8692;52.164;7.558;2023-05-08T08:55:22;8.63;;;7.87;;
17153;SDS011;8692;52.164;7.558;2023-05-08T08:57:54;8.43;;;7.70;;
17153;SDS011;8692;52.164;7.558;2023-05-08T09:00:33;8.17;;;7.40;;
17153;SDS011;8692;52.164;7.558;2023-05-08T09:03:04;8.97;;;8.07;;
17153;SDS011;8692;52.164;7.558;2023-05-08T09:05:33;9.40;;;8.60;;
17153;SDS011;8692;52.164;7.558;2023-05-08T09:08:05;9.67;;;8.87;;
17153;SDS011;8692;52.164;7.558;2023-05-08T09:10:35;7.97;;;7.27;;
17153;SDS011;8692;52.164;7.558;2023-05-08T09:13:06;8.47;;;7.77;;
17153;SDS011;8692;52.164;7.558;2023-05-08T09:15:34;9.73;;;8.83;;
17153;SDS011;8692;52.164;7.558;2023-05-08T09:18:02;9.03;;;8.13;;
17153;SDS011;8692;52.164;7.558;2023-05-08T09:20:34;10.00;;;9.00;;
17153;SDS011;8692;52.164;7.558;2023-05-08T09:23:02;9.27;;;8.47;;
17153;SDS011;8692;52.164;7.558;2023-05-08T09:25:41;8.17;;;7.40;;
17153;SDS011;8692;52.164;7.558;2023-05-08T09:28:16;9.47;;;8.57;;
17153;SDS011;8692;52.164;7.558;2023-05-08T09:30:48;9.37;;;8.47;;
17153;SDS011;8692;52.164;7.558;2023-05-08T09:33:18;8.33;;;7.63;;
17153;SDS011;8692;52.164;7.558;2023-05-08T09:35:49;9.23;;;8.33;;
17153;SDS011;8692;52.164;7.558;2023-05-08T09:41:09;8.10;;;7.40;;
17153;SDS011;8692;52.164;7.558;2023-05-08T09:43:42;8.70;;;8.00;;
17153;SDS011;8692;52.164;7.558;2023-05-08T09:46:21;8.23;;;7.53;;
17153;SDS011;8692;52.164;7.558;2023-05-08T09:48:50;9.00;;;8.10;;
17153;SDS011;8692;52.164;7.558;2023-05-08T09:51:19;8.43;;;7.73;;
17153;SDS011;8692;52.164;7.558;2023-05-08T09:53:49;9.40;;;8.50;;
17153;SDS011;8692;52.164;7.558;2023-05-08T09:56:35;8.70;;;7.90;;
17153;SDS011;8692;52.164;7.558;2023-05-08T10:01:52;10.17;;;8.97;;
17153;SDS011;8692;52.164;7.558;2023-05-08T10:04:30;9.37;;;8.47;;
17153;SDS011;8692;52.164;7.558;2023-05-08T10:06:59;8.47;;;7.60;;
17153;SDS011;8692;52.164;7.558;2023-05-08T10:09:27;10.27;;;9.10;;
17153;SDS011;8692;52.164;7.558;2023-05-08T10:12:19;8.27;;;7.57;;
17153;SDS011;8692;52.164;7.558;2023-05-08T10:14:48;9.40;;;8.50;;
17153;SDS011;8692;52.164;7.558;2023-05-08T10:17:19;8.27;;;7.60;;
17153;SDS011;8692;52.164;7.558;2023-05-08T10:20:01;8.07;;;7.47;;
17153;SDS011;8692;52.164;7.558;2023-05-08T10:22:36;8.67;;;7.77;;
17153;SDS011;8692;52.164;7.558;2023-05-08T10:25:09;8.07;;;7.37;;
17153;SDS011;8692;52.164;7.558;2023-05-08T10:27:46;8.60;;;7.60;;
17153;SDS011;8692;52.164;7.558;2023-05-08T10:30:22;9.17;;;8.17;;
17153;SDS011;8692;52.164;7.558;2023-05-08T10:32:52;8.27;;;7.47;;
17153;SDS011;8692;52.164;7.558;2023-05-08T10:35:21;7.97;;;7.33;;
17153;SDS011;8692;52.164;7.558;2023-05-08T10:37:49;8.60;;;7.90;;
17153;SDS011;8692;52.164;7.558;2023-05-08T10:40:20;7.27;;;6.53;;
17153;SDS011;8692;52.164;7.558;2023-05-08T10:42:50;9.27;;;8.37;;
17153;SDS011;8692;52.164;7.558;2023-05-08T10:45:18;8.73;;;7.93;;
17153;SDS011;8692;52.164;7.558;2023-05-08T10:47:55;9.13;;;7.90;;
17153;SDS011;8692;52.164;7.558;2023-05-08T10:50:32;8.70;;;8.00;;
17153;SDS011;8692;52.164;7.558;2023-05-08T10:53:10;10.30;;;9.27;;
17153;SDS011;8692;52.164;7.558;2023-05-08T10:55:44;9.80;;;8.83;;
17153;SDS011;8692;52.164;7.558;2023-05-08T10:58:29;8.93;;;8.13;;
17153;SDS011;8692;52.164;7.558;2023-05-08T11:01:14;8.63;;;7.87;;
17153;SDS011;8692;52.164;7.558;2023-05-08T11:03:44;9.30;;;8.43;;
17153;SDS011;8692;52.164;7.558;2023-05-08T11:06:42;11.27;;;8.43;;
17153;SDS011;8692;52.164;7.558;2023-05-08T11:09:19;9.67;;;8.87;;
17153;SDS011;8692;52.164;7.558;2023-05-08T11:14:54;11.13;;;9.03;;
17153;SDS011;8692;52.164;7.558;2023-05-08T11:17:26;10.30;;;9.27;;
17153;SDS011;8692;52.164;7.558;2023-05-08T11:19:55;9.30;;;8.43;;
17153;SDS011;8692;52.164;7.558;2023-05-08T11:22:27;9.60;;;8.70;;
17153;SDS011;8692;52.164;7.558;2023-05-08T11:25:00;9.23;;;8.43;;
17153;SDS011;8692;52.164;7.558;2023-05-08T11:27:40;8.33;;;7.67;;
17153;SDS011;8692;52.164;7.558;2023-05-08T11:30:38;8.47;;;7.67;;
17153;SDS011;8692;52.164;7.558;2023-05-08T11:33:13;8.07;;;7.37;;
17153;SDS011;8692;52.164;7.558;2023-05-08T11:35:43;8.50;;;7.63;;
17153;SDS011;8692;52.164;7.558;2023-05-08T11:38:23;8.20;;;7.50;;
17153;SDS011;8692;52.164;7.558;2023-05-08T11:40:59;8.97;;;8.13;;
17153;SDS011;8692;52.164;7.558;2023-05-08T11:46:42;7.10;;;6.50;;
17153;SDS011;8692;52.164;7.558;2023-05-08T11:49:16;7.67;;;6.87;;
17153;SDS011;8692;52.164;7.558;2023-05-08T11:51:53;7.50;;;6.90;;
17153;SDS011;8692;52.164;7.558;2023-05-08T11:54:24;7.63;;;6.50;;
17153;SDS011;8692;52.164;7.558;2023-05-08T11:56:55;8.47;;;7.47;;
17153;SDS011;8692;52.164;7.558;2023-05-08T11:59:25;8.23;;;7.43;;
17153;SDS011;8692;52.164;7.558;2023-05-08T12:01:54;6.83;;;6.23;;
17153;SDS011;8692;52.164;7.558;2023-05-08T12:04:41;7.17;;;6.47;;
17153;SDS011;8692;52.164;7.558;2023-05-08T12:07:13;7.20;;;6.60;;
17153;SDS011;8692;52.164;7.558;2023-05-08T12:09:42;6.17;;;5.67;;
17153;SDS011;8692;52.164;7.558;2023-05-08T12:12:12;8.70;;;7.90;;
17153;SDS011;8692;52.164;7.558;2023-05-08T12:14:40;7.60;;;6.90;;
17153;SDS011;8692;52.164;7.558;2023-05-08T12:17:10;8.63;;;6.47;;
17153;SDS011;8692;52.164;7.558;2023-05-08T12:19:43;7.13;;;6.43;;
17153;SDS011;8692;52.164;7.558;2023-05-08T12:22:13;6.63;;;5.97;;
17153;SDS011;8692;52.164;7.558;2023-05-08T12:24:41;6.00;;;5.40;;
17153;SDS011;8692;52.164;7.558;2023-05-08T12:27:13;5.80;;;5.30;;
17153;SDS011;8692;52.164;7.558;2023-05-08T12:29:43;5.40;;;4.90;;
17153;SDS011;8692;52.164;7.558;2023-05-08T12:32:13;6.50;;;5.90;;
17153;SDS011;8692;52.164;7.558;2023-05-08T12:34:50;5.30;;;4.90;;
17153;SDS011;8692;52.164;7.558;2023-05-08T12:37:25;4.33;;;4.03;;
17153;SDS011;8692;52.164;7.558;2023-05-08T12:39:53;4.33;;;4.03;;
17153;SDS011;8692;52.164;7.558;2023-05-08T12:42:23;6.33;;;5.20;;
17153;SDS011;8692;52.164;7.558;2023-05-08T12:45:08;6.10;;;5.50;;
17153;SDS011;8692;52.164;7.558;2023-05-08T12:47:48;5.43;;;4.97;;
17153;SDS011;8692;52.164;7.558;2023-05-08T12:50:17;7.50;;;5.03;;
17153;SDS011;8692;52.164;7.558;2023-05-08T12:52:47;6.77;;;6.07;;
17153;SDS011;8692;52.164;7.558;2023-05-08T12:55:21;5.53;;;4.97;;
17153;SDS011;8692;52.164;7.558;2023-05-08T12:57:57;5.93;;;5.37;;
17153;SDS011;8692;52.164;7.558;2023-05-08T13:00:32;6.73;;;6.20;;
17153;SDS011;8692;52.164;7.558;2023-05-08T13:03:04;8.53;;;6.70;;
17153;SDS011;8692;52.164;7.558;2023-05-08T13:05:40;7.57;;;6.87;;
17153;SDS011;8692;52.164;7.558;2023-05-08T13:08:11;6.97;;;6.27;;
17153;SDS011;8692;52.164;7.558;2023-05-08T13:10:43;7.50;;;6.73;;
17153;SDS011;8692;52.164;7.558;2023-05-08T13:13:13;8.03;;;7.33;;
17153;SDS011;8692;52.164;7.558;2023-05-08T13:15:45;6.47;;;5.83;;
17153;SDS011;8692;52.164;7.558;2023-05-08T13:18:15;6.53;;;6.05;;
17153;SDS011;8692;52.164;7.558;2023-05-08T13:20:47;6.57;;;5.80;;
17153;SDS011;8692;52.164;7.558;2023-05-08T13:23:15;6.50;;;5.70;;
17153;SDS011;8692;52.164;7.558;2023-05-08T13:25:43;5.90;;;5.30;;
17153;SDS011;8692;52.164;7.558;2023-05-08T13:28:12;6.43;;;5.85;;
17153;SDS011;8692;52.164;7.558;2023-05-08T13:30:40;6.07;;;5.57;;
17153;SDS011;8692;52.164;7.558;2023-05-08T13:33:11;5.77;;;4.93;;
17153;SDS011;8692;52.164;7.558;2023-05-08T13:35:41;5.90;;;5.40;;
17153;SDS011;8692;52.164;7.558;2023-05-08T13:38:09;5.88;;;5.28;;
17153;SDS011;8692;52.164;7.558;2023-05-08T13:40:37;6.03;;;5.53;;
17153;SDS011;8692;52.164;7.558;2023-05-08T13:43:05;6.40;;;5.80;;
17153;SDS011;8692;52.164;7.558;2023-05-08T13:45:34;9.25;;;5.90;;
17153;SDS011;8692;52.164;7.558;2023-05-08T13:48:02;5.70;;;5.30;;
17153;SDS011;8692;52.164;7.558;2023-05-08T13:50:33;5.78;;;5.28;;
17153;SDS011;8692;52.164;7.558;2023-05-08T13:53:08;5.83;;;5.30;;
17153;SDS011;8692;52.164;7.558;2023-05-08T13:55:36;5.82;;;5.25;;
17153;SDS011;8692;52.164;7.558;2023-05-08T13:58:07;7.40;;;5.77;;
17153;SDS011;8692;52.164;7.558;2023-05-08T14:00:37;7.63;;;6.40;;
17153;SDS011;8692;52.164;7.558;2023-05-08T14:03:06;8.43;;;7.05;;
17153;SDS011;8692;52.164;7.558;2023-05-08T14:05:34;8.05;;;7.10;;
17153;SDS011;8692;52.164;7.558;2023-05-08T14:08:07;7.95;;;7.25;;
17153;SDS011;8692;52.164;7.558;2023-05-08T14:10:39;10.15;;;8.13;;
17153;SDS011;8692;52.164;7.558;2023-05-08T14:13:07;7.97;;;7.28;;
17153;SDS011;8692;52.164;7.558;2023-05-08T14:15:37;8.63;;;7.93;;
17153;SDS011;8692;52.164;7.558;2023-05-08T14:18:05;8.85;;;8.07;;
17153;SDS011;8692;52.164;7.558;2023-05-08T14:20:34;7.70;;;6.90;;
17153;SDS011;8692;52.164;7.558;2023-05-08T14:23:04;7.40;;;6.85;;
17153;SDS011;8692;52.164;7.558;2023-05-08T14:25:36;12.13;;;8.25;;
17153;SDS011;8692;52.164;7.558;2023-05-08T14:28:07;9.50;;;8.70;;
17153;SDS011;8692;52.164;7.558;2023-05-08T14:30:35;7.88;;;7.18;;
17153;SDS011;8692;52.164;7.558;2023-05-08T14:33:06;8.30;;;7.63;;
17153;SDS011;8692;52.164;7.558;2023-05-08T14:35:34;8.60;;;7.75;;
17153;SDS011;8692;52.164;7.558;2023-05-08T14:38:05;7.43;;;6.82;;
17153;SDS011;8692;52.164;7.558;2023-05-08T14:40:33;7.05;;;6.45;;
17153;SDS011;8692;52.164;7.558;2023-05-08T14:43:02;7.63;;;6.88;;
17153;SDS011;8692;52.164;7.558;2023-05-08T14:45:33;9.23;;;7.40;;
17153;SDS011;8692;52.164;7.558;2023-05-08T14:48:04;7.30;;;6.70;;
17153;SDS011;8692;52.164;7.558;2023-05-08T14:50:33;7.78;;;7.15;;
17153;SDS011;8692;52.164;7.558;2023-05-08T14:53:01;7.30;;;6.68;;
17153;SDS011;8692;52.164;7.558;2023-05-08T14:55:29;9.50;;;5.72;;
17153;SDS011;8692;52.164;7.558;2023-05-08T14:57:59;5.30;;;4.90;;
17153;SDS011;8692;52.164;7.558;2023-05-08T15:00:28;7.63;;;6.95;;
17153;SDS011;8692;52.164;7.558;2023-05-08T15:02:56;7.50;;;6.90;;
17153;SDS011;8692;52.164;7.558;2023-05-08T15:05:25;6.25;;;5.75;;
17153;SDS011;8692;52.164;7.558;2023-05-08T15:07:53;6.55;;;5.95;;
17153;SDS011;8692;52.164;7.558;2023-05-08T15:10:22;8.35;;;5.65;;
17153;SDS011;8692;52.164;7.558;2023-05-08T15:12:51;7.03;;;6.43;;
17153;SDS011;8692;52.164;7.558;2023-05-08T15:15:21;5.90;;;5.30;;
17153;SDS011;8692;52.164;7.558;2023-05-08T15:17:51;8.25;;;7.55;;
17153;SDS011;8692;52.164;7.558;2023-05-08T15:20:20;9.07;;;8.38;;
17153;SDS011;8692;52.164;7.558;2023-05-08T15:22:48;5.97;;;5.40;;
17153;SDS011;8692;52.164;7.558;2023-05-08T15:25:18;4.90;;;4.50;;
17153;SDS011;8692;52.164;7.558;2023-05-08T15:27:47;4.75;;;4.35;;
17153;SDS011;8692;52.164;7.558;2023-05-08T15:30:20;5.38;;;2.90;;
17153;SDS011;8692;52.164;7.558;2023-05-08T15:32:52;2.80;;;2.60;;
17153;SDS011;8692;52.164;7.558;2023-05-08T15:35:23;2.65;;;2.45;;
17153;SDS011;8692;52.164;7.558;2023-05-08T15:37:52;3.30;;;3.10;;
17153;SDS011;8692;52.164;7.558;2023-05-08T15:40:20;3.37;;;2.47;;
17153;SDS011;8692;52.164;7.558;2023-05-08T15:42:49;4.30;;;2.60;;